Pleasantview, Pennsylvania
Current Conditions -  °F | °C
As of 11:53 AM on Thursday 23 Oct 2014 (Local Time) from KUNV Reporting Station
Overcast Overcast  
Wind Chill: 52°   Ceiling: 2500
Heat Index: 52°   Visibility: 10mi
Dew Point: 43°   Wind: 14mph
Humidity: 71%   Direction: 360°N
Pressure: 29.98"   Gusts: NA
Location:  40.4991°N, 77.4687°W
Report Text: KUNV 231553Z 36012KT 10SM OVC025 11/06 A2998
Loading
Personal Weather Stations






























Interactive Weather Map
Tropical Storm Tracking
New forecast layout! Learn more

10-Day Weather Forecast

Advertisements
Track Severe Weather on mobile